sensor_id;sensor_type;location;lat;lon;timestamp;P1;durP1;ratioP1;P2;durP2;ratioP2
9974;SDS011;5028;50.974;4.968;2022-09-09T00:00:53;3.50;;;1.60;;
9974;SDS011;5028;50.974;4.968;2022-09-09T00:03:26;2.80;;;1.73;;
9974;SDS011;5028;50.974;4.968;2022-09-09T00:06:07;1.73;;;1.60;;
9974;SDS011;5028;50.974;4.968;2022-09-09T00:08:50;3.20;;;1.67;;
9974;SDS011;5028;50.974;4.968;2022-09-09T00:11:34;4.23;;;1.90;;
9974;SDS011;5028;50.974;4.968;2022-09-09T00:14:13;2.67;;;1.40;;
9974;SDS011;5028;50.974;4.968;2022-09-09T00:16:54;2.17;;;1.60;;
9974;SDS011;5028;50.974;4.968;2022-09-09T00:19:29;4.67;;;1.47;;
9974;SDS011;5028;50.974;4.968;2022-09-09T00:22:15;4.10;;;1.60;;
9974;SDS011;5028;50.974;4.968;2022-09-09T00:24:45;4.87;;;1.60;;
9974;SDS011;5028;50.974;4.968;2022-09-09T00:27:25;2.67;;;1.30;;
9974;SDS011;5028;50.974;4.968;2022-09-09T00:30:00;3.43;;;1.43;;
9974;SDS011;5028;50.974;4.968;2022-09-09T00:32:47;2.60;;;1.30;;
9974;SDS011;5028;50.974;4.968;2022-09-09T00:35:18;3.67;;;1.50;;
9974;SDS011;5028;50.974;4.968;2022-09-09T00:38:00;4.57;;;1.50;;
9974;SDS011;5028;50.974;4.968;2022-09-09T00:40:37;3.40;;;1.33;;
9974;SDS011;5028;50.974;4.968;2022-09-09T00:43:24;3.07;;;1.40;;
9974;SDS011;5028;50.974;4.968;2022-09-09T00:46:13;3.03;;;1.37;;
9974;SDS011;5028;50.974;4.968;2022-09-09T00:49:00;4.40;;;1.40;;
9974;SDS011;5028;50.974;4.968;2022-09-09T00:51:39;3.83;;;1.20;;
9974;SDS011;5028;50.974;4.968;2022-09-09T00:54:26;2.93;;;1.40;;
9974;SDS011;5028;50.974;4.968;2022-09-09T00:57:06;2.93;;;1.50;;
9974;SDS011;5028;50.974;4.968;2022-09-09T00:59:48;4.03;;;1.53;;
9974;SDS011;5028;50.974;4.968;2022-09-09T01:02:25;2.33;;;1.23;;
9974;SDS011;5028;50.974;4.968;2022-09-09T01:05:12;3.40;;;1.50;;
9974;SDS011;5028;50.974;4.968;2022-09-09T01:08:02;4.07;;;1.37;;
9974;SDS011;5028;50.974;4.968;2022-09-09T01:10:38;2.77;;;1.50;;
9974;SDS011;5028;50.974;4.968;2022-09-09T01:13:20;3.23;;;1.30;;
9974;SDS011;5028;50.974;4.968;2022-09-09T01:15:58;4.80;;;1.60;;
9974;SDS011;5028;50.974;4.968;2022-09-09T01:18:30;4.20;;;1.70;;
9974;SDS011;5028;50.974;4.968;2022-09-09T01:21:09;2.80;;;1.43;;
9974;SDS011;5028;50.974;4.968;2022-09-09T01:23:48;5.40;;;1.50;;
9974;SDS011;5028;50.974;4.968;2022-09-09T01:26:42;6.57;;;1.63;;
9974;SDS011;5028;50.974;4.968;2022-09-09T01:29:12;4.67;;;1.73;;
9974;SDS011;5028;50.974;4.968;2022-09-09T01:31:52;3.57;;;1.57;;
9974;SDS011;5028;50.974;4.968;2022-09-09T01:34:22;4.67;;;1.33;;
9974;SDS011;5028;50.974;4.968;2022-09-09T01:36:59;4.40;;;1.60;;
9974;SDS011;5028;50.974;4.968;2022-09-09T01:39:32;2.43;;;1.27;;
9974;SDS011;5028;50.974;4.968;2022-09-09T01:42:12;3.97;;;1.70;;
9974;SDS011;5028;50.974;4.968;2022-09-09T01:44:42;3.23;;;1.30;;
9974;SDS011;5028;50.974;4.968;2022-09-09T01:47:17;6.40;;;2.00;;
9974;SDS011;5028;50.974;4.968;2022-09-09T01:49:45;3.70;;;1.67;;
9974;SDS011;5028;50.974;4.968;2022-09-09T01:52:21;4.27;;;1.60;;
9974;SDS011;5028;50.974;4.968;2022-09-09T01:54:50;5.07;;;1.83;;
9974;SDS011;5028;50.974;4.968;2022-09-09T01:57:26;3.87;;;1.60;;
9974;SDS011;5028;50.974;4.968;2022-09-09T02:00:01;5.00;;;1.73;;
9974;SDS011;5028;50.974;4.968;2022-09-09T02:02:44;5.53;;;1.47;;
9974;SDS011;5028;50.974;4.968;2022-09-09T02:05:22;4.63;;;1.90;;
9974;SDS011;5028;50.974;4.968;2022-09-09T02:08:05;5.63;;;1.60;;
9974;SDS011;5028;50.974;4.968;2022-09-09T02:10:37;5.23;;;1.70;;
9974;SDS011;5028;50.974;4.968;2022-09-09T02:13:21;5.63;;;1.70;;
9974;SDS011;5028;50.974;4.968;2022-09-09T02:15:52;4.13;;;1.70;;
9974;SDS011;5028;50.974;4.968;2022-09-09T02:18:30;4.53;;;1.77;;
9974;SDS011;5028;50.974;4.968;2022-09-09T02:21:03;4.17;;;1.73;;
9974;SDS011;5028;50.974;4.968;2022-09-09T02:23:39;5.07;;;1.67;;
9974;SDS011;5028;50.974;4.968;2022-09-09T02:26:10;4.50;;;1.60;;
9974;SDS011;5028;50.974;4.968;2022-09-09T02:28:54;5.80;;;1.90;;
9974;SDS011;5028;50.974;4.968;2022-09-09T02:31:24;7.20;;;1.80;;
9974;SDS011;5028;50.974;4.968;2022-09-09T02:34:00;4.30;;;1.93;;
9974;SDS011;5028;50.974;4.968;2022-09-09T02:36:32;4.63;;;1.77;;
9974;SDS011;5028;50.974;4.968;2022-09-09T02:39:09;3.47;;;1.90;;
9974;SDS011;5028;50.974;4.968;2022-09-09T02:41:38;6.27;;;1.97;;
9974;SDS011;5028;50.974;4.968;2022-09-09T02:44:17;4.00;;;1.53;;
9974;SDS011;5028;50.974;4.968;2022-09-09T02:46:51;4.83;;;1.90;;
9974;SDS011;5028;50.974;4.968;2022-09-09T02:49:48;5.33;;;2.00;;
9974;SDS011;5028;50.974;4.968;2022-09-09T02:52:26;5.43;;;2.07;;
9974;SDS011;5028;50.974;4.968;2022-09-09T02:55:09;5.60;;;2.10;;
9974;SDS011;5028;50.974;4.968;2022-09-09T02:57:44;4.40;;;1.90;;
9974;SDS011;5028;50.974;4.968;2022-09-09T03:00:26;4.23;;;1.80;;
9974;SDS011;5028;50.974;4.968;2022-09-09T03:02:55;5.27;;;1.93;;
9974;SDS011;5028;50.974;4.968;2022-09-09T03:05:37;4.80;;;1.57;;
9974;SDS011;5028;50.974;4.968;2022-09-09T03:08:19;5.60;;;2.10;;
9974;SDS011;5028;50.974;4.968;2022-09-09T03:10:54;7.13;;;1.90;;
9974;SDS011;5028;50.974;4.968;2022-09-09T03:13:22;6.57;;;2.20;;
9974;SDS011;5028;50.974;4.968;2022-09-09T03:15:59;5.47;;;2.00;;
9974;SDS011;5028;50.974;4.968;2022-09-09T03:18:28;5.90;;;1.90;;
9974;SDS011;5028;50.974;4.968;2022-09-09T03:21:03;5.53;;;2.07;;
9974;SDS011;5028;50.974;4.968;2022-09-09T03:23:31;5.33;;;1.90;;
9974;SDS011;5028;50.974;4.968;2022-09-09T03:26:07;4.53;;;1.90;;
9974;SDS011;5028;50.974;4.968;2022-09-09T03:28:36;4.83;;;1.77;;
9974;SDS011;5028;50.974;4.968;2022-09-09T03:31:12;5.10;;;1.80;;
9974;SDS011;5028;50.974;4.968;2022-09-09T03:33:41;4.47;;;1.80;;
9974;SDS011;5028;50.974;4.968;2022-09-09T03:36:16;5.13;;;1.90;;
9974;SDS011;5028;50.974;4.968;2022-09-09T03:38:45;7.83;;;2.50;;
9974;SDS011;5028;50.974;4.968;2022-09-09T03:41:20;7.10;;;2.17;;
9974;SDS011;5028;50.974;4.968;2022-09-09T03:43:50;5.67;;;2.20;;
9974;SDS011;5028;50.974;4.968;2022-09-09T03:46:26;7.17;;;2.27;;
9974;SDS011;5028;50.974;4.968;2022-09-09T03:48:55;8.90;;;2.27;;
9974;SDS011;5028;50.974;4.968;2022-09-09T03:51:30;8.30;;;2.47;;
9974;SDS011;5028;50.974;4.968;2022-09-09T03:54:02;7.17;;;1.97;;
9974;SDS011;5028;50.974;4.968;2022-09-09T03:56:38;6.70;;;2.03;;
9974;SDS011;5028;50.974;4.968;2022-09-09T03:59:07;5.63;;;1.93;;
9974;SDS011;5028;50.974;4.968;2022-09-09T04:01:44;5.00;;;2.07;;
9974;SDS011;5028;50.974;4.968;2022-09-09T04:04:13;4.73;;;1.83;;
9974;SDS011;5028;50.974;4.968;2022-09-09T04:06:55;6.10;;;2.17;;
9974;SDS011;5028;50.974;4.968;2022-09-09T04:09:23;5.83;;;2.10;;
9974;SDS011;5028;50.974;4.968;2022-09-09T04:11:58;5.83;;;1.73;;
9974;SDS011;5028;50.974;4.968;2022-09-09T04:14:26;6.33;;;1.90;;
9974;SDS011;5028;50.974;4.968;2022-09-09T04:17:03;8.20;;;2.20;;
9974;SDS011;5028;50.974;4.968;2022-09-09T04:19:32;6.93;;;1.93;;
9974;SDS011;5028;50.974;4.968;2022-09-09T04:22:07;5.33;;;2.20;;
9974;SDS011;5028;50.974;4.968;2022-09-09T04:24:35;5.53;;;1.93;;
9974;SDS011;5028;50.974;4.968;2022-09-09T04:27:14;6.03;;;1.70;;
9974;SDS011;5028;50.974;4.968;2022-09-09T04:29:42;4.80;;;1.73;;
9974;SDS011;5028;50.974;4.968;2022-09-09T04:32:19;5.97;;;2.17;;
9974;SDS011;5028;50.974;4.968;2022-09-09T04:34:48;6.60;;;2.00;;
9974;SDS011;5028;50.974;4.968;2022-09-09T04:37:23;7.10;;;1.77;;
9974;SDS011;5028;50.974;4.968;2022-09-09T04:39:51;5.10;;;1.70;;
9974;SDS011;5028;50.974;4.968;2022-09-09T04:42:48;6.90;;;1.90;;
9974;SDS011;5028;50.974;4.968;2022-09-09T04:45:46;6.03;;;1.60;;
9974;SDS011;5028;50.974;4.968;2022-09-09T04:48:24;7.20;;;1.70;;
9974;SDS011;5028;50.974;4.968;2022-09-09T04:50:56;8.13;;;2.10;;
9974;SDS011;5028;50.974;4.968;2022-09-09T04:53:32;6.73;;;1.97;;
9974;SDS011;5028;50.974;4.968;2022-09-09T04:56:08;6.20;;;1.93;;
9974;SDS011;5028;50.974;4.968;2022-09-09T04:58:38;6.53;;;2.30;;
9974;SDS011;5028;50.974;4.968;2022-09-09T05:01:16;5.70;;;1.77;;
9974;SDS011;5028;50.974;4.968;2022-09-09T05:03:47;5.30;;;2.00;;
9974;SDS011;5028;50.974;4.968;2022-09-09T05:06:22;5.57;;;2.17;;
9974;SDS011;5028;50.974;4.968;2022-09-09T05:09:05;7.73;;;2.10;;
9974;SDS011;5028;50.974;4.968;2022-09-09T05:11:40;7.57;;;2.17;;
9974;SDS011;5028;50.974;4.968;2022-09-09T05:14:08;6.00;;;1.97;;
9974;SDS011;5028;50.974;4.968;2022-09-09T05:16:45;6.30;;;2.20;;
9974;SDS011;5028;50.974;4.968;2022-09-09T05:19:15;7.57;;;1.93;;
9974;SDS011;5028;50.974;4.968;2022-09-09T05:21:52;8.50;;;2.07;;
9974;SDS011;5028;50.974;4.968;2022-09-09T05:24:20;8.00;;;2.23;;
9974;SDS011;5028;50.974;4.968;2022-09-09T05:26:49;6.57;;;2.30;;
9974;SDS011;5028;50.974;4.968;2022-09-09T05:29:25;7.67;;;2.10;;
9974;SDS011;5028;50.974;4.968;2022-09-09T05:31:53;5.83;;;1.97;;
9974;SDS011;5028;50.974;4.968;2022-09-09T05:34:31;8.60;;;2.03;;
9974;SDS011;5028;50.974;4.968;2022-09-09T05:36:59;9.00;;;2.10;;
9974;SDS011;5028;50.974;4.968;2022-09-09T05:39:34;9.63;;;2.67;;
9974;SDS011;5028;50.974;4.968;2022-09-09T05:42:04;5.43;;;1.90;;
9974;SDS011;5028;50.974;4.968;2022-09-09T05:44:40;6.63;;;1.80;;
9974;SDS011;5028;50.974;4.968;2022-09-09T05:47:09;7.07;;;2.00;;
9974;SDS011;5028;50.974;4.968;2022-09-09T05:49:45;10.27;;;2.40;;
9974;SDS011;5028;50.974;4.968;2022-09-09T05:52:14;6.70;;;2.27;;
9974;SDS011;5028;50.974;4.968;2022-09-09T05:54:49;8.20;;;2.50;;
9974;SDS011;5028;50.974;4.968;2022-09-09T05:57:17;7.13;;;2.13;;
9974;SDS011;5028;50.974;4.968;2022-09-09T05:59:53;8.30;;;2.13;;
9974;SDS011;5028;50.974;4.968;2022-09-09T06:02:21;7.63;;;2.10;;
9974;SDS011;5028;50.974;4.968;2022-09-09T06:04:58;6.20;;;2.17;;
9974;SDS011;5028;50.974;4.968;2022-09-09T06:07:46;6.77;;;2.13;;
9974;SDS011;5028;50.974;4.968;2022-09-09T06:10:14;10.47;;;2.67;;
9974;SDS011;5028;50.974;4.968;2022-09-09T06:12:52;12.23;;;2.97;;
9974;SDS011;5028;50.974;4.968;2022-09-09T06:15:21;7.53;;;1.93;;
9974;SDS011;5028;50.974;4.968;2022-09-09T06:17:56;7.70;;;2.50;;
9974;SDS011;5028;50.974;4.968;2022-09-09T06:20:26;9.23;;;2.20;;
9974;SDS011;5028;50.974;4.968;2022-09-09T06:23:03;5.93;;;2.13;;
9974;SDS011;5028;50.974;4.968;2022-09-09T06:25:32;9.13;;;2.37;;
9974;SDS011;5028;50.974;4.968;2022-09-09T06:28:07;7.43;;;2.03;;
9974;SDS011;5028;50.974;4.968;2022-09-09T06:30:35;7.10;;;2.40;;
9974;SDS011;5028;50.974;4.968;2022-09-09T06:33:11;7.47;;;2.17;;
9974;SDS011;5028;50.974;4.968;2022-09-09T06:35:41;11.27;;;2.60;;
9974;SDS011;5028;50.974;4.968;2022-09-09T06:38:16;7.07;;;1.97;;
9974;SDS011;5028;50.974;4.968;2022-09-09T06:40:50;8.00;;;2.10;;
9974;SDS011;5028;50.974;4.968;2022-09-09T06:43:25;8.07;;;2.27;;
9974;SDS011;5028;50.974;4.968;2022-09-09T06:45:54;8.47;;;2.53;;
9974;SDS011;5028;50.974;4.968;2022-09-09T06:48:30;7.43;;;1.97;;
9974;SDS011;5028;50.974;4.968;2022-09-09T06:51:04;8.27;;;2.00;;
9974;SDS011;5028;50.974;4.968;2022-09-09T06:53:40;7.10;;;1.80;;
9974;SDS011;5028;50.974;4.968;2022-09-09T06:56:17;6.57;;;2.20;;
9974;SDS011;5028;50.974;4.968;2022-09-09T06:58:56;6.70;;;2.20;;
9974;SDS011;5028;50.974;4.968;2022-09-09T07:01:27;9.53;;;2.53;;
9974;SDS011;5028;50.974;4.968;2022-09-09T07:04:04;6.40;;;2.30;;
9974;SDS011;5028;50.974;4.968;2022-09-09T07:06:37;9.10;;;2.40;;
9974;SDS011;5028;50.974;4.968;2022-09-09T07:09:20;7.70;;;2.03;;
9974;SDS011;5028;50.974;4.968;2022-09-09T07:11:51;6.87;;;1.93;;
9974;SDS011;5028;50.974;4.968;2022-09-09T07:14:26;11.30;;;2.40;;
9974;SDS011;5028;50.974;4.968;2022-09-09T07:16:55;5.87;;;1.77;;
9974;SDS011;5028;50.974;4.968;2022-09-09T07:19:25;7.43;;;2.27;;
9974;SDS011;5028;50.974;4.968;2022-09-09T07:22:02;8.77;;;2.20;;
9974;SDS011;5028;50.974;4.968;2022-09-09T07:24:30;7.33;;;1.87;;
9974;SDS011;5028;50.974;4.968;2022-09-09T07:27:05;7.20;;;1.90;;
9974;SDS011;5028;50.974;4.968;2022-09-09T07:29:34;6.47;;;2.17;;
9974;SDS011;5028;50.974;4.968;2022-09-09T07:32:08;7.83;;;2.57;;
9974;SDS011;5028;50.974;4.968;2022-09-09T07:34:37;8.53;;;2.17;;
9974;SDS011;5028;50.974;4.968;2022-09-09T07:37:13;5.87;;;1.80;;
9974;SDS011;5028;50.974;4.968;2022-09-09T07:39:43;8.70;;;2.30;;
9974;SDS011;5028;50.974;4.968;2022-09-09T07:42:19;6.23;;;2.13;;
9974;SDS011;5028;50.974;4.968;2022-09-09T07:44:47;5.83;;;2.10;;
9974;SDS011;5028;50.974;4.968;2022-09-09T07:47:22;6.10;;;2.17;;
9974;SDS011;5028;50.974;4.968;2022-09-09T07:49:51;6.47;;;1.93;;
9974;SDS011;5028;50.974;4.968;2022-09-09T07:52:28;7.57;;;2.13;;
9974;SDS011;5028;50.974;4.968;2022-09-09T07:54:56;4.63;;;1.87;;
9974;SDS011;5028;50.974;4.968;2022-09-09T07:57:31;7.77;;;2.10;;
9974;SDS011;5028;50.974;4.968;2022-09-09T07:59:59;7.57;;;1.97;;
9974;SDS011;5028;50.974;4.968;2022-09-09T08:02:35;5.57;;;1.87;;
9974;SDS011;5028;50.974;4.968;2022-09-09T08:05:04;10.40;;;2.30;;
9974;SDS011;5028;50.974;4.968;2022-09-09T08:07:47;7.93;;;2.10;;
9974;SDS011;5028;50.974;4.968;2022-09-09T08:10:16;7.10;;;2.27;;
9974;SDS011;5028;50.974;4.968;2022-09-09T08:12:51;8.07;;;2.10;;
9974;SDS011;5028;50.974;4.968;2022-09-09T08:15:40;5.80;;;2.00;;
9974;SDS011;5028;50.974;4.968;2022-09-09T08:18:16;8.83;;;2.10;;
9974;SDS011;5028;50.974;4.968;2022-09-09T08:20:51;9.50;;;2.20;;
9974;SDS011;5028;50.974;4.968;2022-09-09T08:23:21;9.37;;;2.27;;
9974;SDS011;5028;50.974;4.968;2022-09-09T08:26:02;6.30;;;2.00;;
9974;SDS011;5028;50.974;4.968;2022-09-09T08:28:31;5.97;;;1.93;;
9974;SDS011;5028;50.974;4.968;2022-09-09T08:31:08;5.80;;;1.80;;
9974;SDS011;5028;50.974;4.968;2022-09-09T08:33:39;8.60;;;2.07;;
9974;SDS011;5028;50.974;4.968;2022-09-09T08:36:19;4.87;;;1.60;;
9974;SDS011;5028;50.974;4.968;2022-09-09T08:38:50;11.43;;;2.40;;
9974;SDS011;5028;50.974;4.968;2022-09-09T08:41:31;5.40;;;1.83;;
9974;SDS011;5028;50.974;4.968;2022-09-09T08:44:22;6.67;;;1.60;;
9974;SDS011;5028;50.974;4.968;2022-09-09T08:47:05;7.63;;;2.20;;
9974;SDS011;5028;50.974;4.968;2022-09-09T08:49:50;5.67;;;1.73;;
9974;SDS011;5028;50.974;4.968;2022-09-09T08:52:37;4.87;;;1.80;;
9974;SDS011;5028;50.974;4.968;2022-09-09T08:55:15;6.73;;;2.20;;
9974;SDS011;5028;50.974;4.968;2022-09-09T08:58:01;4.83;;;1.70;;
9974;SDS011;5028;50.974;4.968;2022-09-09T09:00:40;6.43;;;2.00;;
9974;SDS011;5028;50.974;4.968;2022-09-09T09:03:35;8.00;;;1.90;;
9974;SDS011;5028;50.974;4.968;2022-09-09T09:06:13;5.10;;;2.07;;
9974;SDS011;5028;50.974;4.968;2022-09-09T09:09:00;5.40;;;1.90;;
9974;SDS011;5028;50.974;4.968;2022-09-09T09:11:44;6.87;;;2.00;;
9974;SDS011;5028;50.974;4.968;2022-09-09T09:14:22;5.70;;;1.70;;
9974;SDS011;5028;50.974;4.968;2022-09-09T09:16:57;6.27;;;1.80;;
9974;SDS011;5028;50.974;4.968;2022-09-09T09:19:37;9.80;;;2.17;;
9974;SDS011;5028;50.974;4.968;2022-09-09T09:22:10;9.57;;;2.03;;
9974;SDS011;5028;50.974;4.968;2022-09-09T09:24:51;6.37;;;2.30;;
9974;SDS011;5028;50.974;4.968;2022-09-09T09:27:30;6.40;;;2.00;;
9974;SDS011;5028;50.974;4.968;2022-09-09T09:30:12;9.37;;;2.47;;
9974;SDS011;5028;50.974;4.968;2022-09-09T09:32:57;4.57;;;1.87;;
9974;SDS011;5028;50.974;4.968;2022-09-09T09:35:34;5.70;;;1.80;;
9974;SDS011;5028;50.974;4.968;2022-09-09T09:38:11;6.43;;;1.90;;
9974;SDS011;5028;50.974;4.968;2022-09-09T09:41:10;7.37;;;2.30;;
9974;SDS011;5028;50.974;4.968;2022-09-09T09:43:40;7.90;;;1.73;;
9974;SDS011;5028;50.974;4.968;2022-09-09T09:46:20;4.10;;;1.77;;
9974;SDS011;5028;50.974;4.968;2022-09-09T09:48:58;7.13;;;2.03;;
9974;SDS011;5028;50.974;4.968;2022-09-09T09:51:34;9.00;;;2.30;;
9974;SDS011;5028;50.974;4.968;2022-09-09T09:54:08;6.07;;;1.90;;
9974;SDS011;5028;50.974;4.968;2022-09-09T09:56:49;5.90;;;2.00;;
9974;SDS011;5028;50.974;4.968;2022-09-09T09:59:21;5.40;;;2.33;;
9974;SDS011;5028;50.974;4.968;2022-09-09T10:02:11;6.33;;;2.27;;
9974;SDS011;5028;50.974;4.968;2022-09-09T10:04:43;6.90;;;2.20;;
9974;SDS011;5028;50.974;4.968;2022-09-09T10:07:26;6.90;;;2.30;;
9974;SDS011;5028;50.974;4.968;2022-09-09T10:09:55;5.53;;;1.90;;
9974;SDS011;5028;50.974;4.968;2022-09-09T10:12:35;6.37;;;2.20;;
9974;SDS011;5028;50.974;4.968;2022-09-09T10:15:18;6.00;;;2.40;;
9974;SDS011;5028;50.974;4.968;2022-09-09T10:18:10;5.47;;;2.20;;
9974;SDS011;5028;50.974;4.968;2022-09-09T10:20:51;6.53;;;2.27;;
9974;SDS011;5028;50.974;4.968;2022-09-09T10:23:46;5.20;;;2.10;;
9974;SDS011;5028;50.974;4.968;2022-09-09T10:26:38;6.07;;;2.07;;
9974;SDS011;5028;50.974;4.968;2022-09-09T10:29:22;7.13;;;2.10;;
9974;SDS011;5028;50.974;4.968;2022-09-09T10:32:27;5.33;;;1.70;;
9974;SDS011;5028;50.974;4.968;2022-09-09T10:35:14;5.83;;;1.90;;
9974;SDS011;5028;50.974;4.968;2022-09-09T10:46:50;5.80;;;2.17;;
9974;SDS011;5028;50.974;4.968;2022-09-09T10:49:41;7.23;;;2.30;;
9974;SDS011;5028;50.974;4.968;2022-09-09T10:52:23;7.33;;;1.90;;
9974;SDS011;5028;50.974;4.968;2022-09-09T10:55:07;7.40;;;2.30;;
9974;SDS011;5028;50.974;4.968;2022-09-09T10:57:40;6.63;;;2.03;;
9974;SDS011;5028;50.974;4.968;2022-09-09T11:00:18;4.50;;;1.83;;
9974;SDS011;5028;50.974;4.968;2022-09-09T11:02:49;5.73;;;2.00;;
9974;SDS011;5028;50.974;4.968;2022-09-09T11:05:31;5.47;;;2.27;;
9974;SDS011;5028;50.974;4.968;2022-09-09T11:08:20;6.83;;;2.30;;
9974;SDS011;5028;50.974;4.968;2022-09-09T11:10:59;8.20;;;2.27;;
9974;SDS011;5028;50.974;4.968;2022-09-09T11:13:32;6.50;;;2.20;;
9974;SDS011;5028;50.974;4.968;2022-09-09T11:16:16;9.53;;;2.40;;
9974;SDS011;5028;50.974;4.968;2022-09-09T11:18:52;6.97;;;2.50;;
9974;SDS011;5028;50.974;4.968;2022-09-09T11:21:34;5.57;;;2.10;;
9974;SDS011;5028;50.974;4.968;2022-09-09T11:24:09;5.50;;;2.20;;
9974;SDS011;5028;50.974;4.968;2022-09-09T11:26:50;5.80;;;1.90;;
9974;SDS011;5028;50.974;4.968;2022-09-09T11:29:41;7.80;;;2.60;;
9974;SDS011;5028;50.974;4.968;2022-09-09T11:36:02;6.17;;;2.20;;
9974;SDS011;5028;50.974;4.968;2022-09-09T11:38:51;6.27;;;2.10;;
9974;SDS011;5028;50.974;4.968;2022-09-09T11:41:20;6.53;;;2.10;;
9974;SDS011;5028;50.974;4.968;2022-09-09T11:43:56;5.43;;;2.07;;
9974;SDS011;5028;50.974;4.968;2022-09-09T11:46:31;5.47;;;1.87;;
9974;SDS011;5028;50.974;4.968;2022-09-09T11:49:25;7.27;;;2.17;;
9974;SDS011;5028;50.974;4.968;2022-09-09T11:51:55;6.63;;;2.30;;
9974;SDS011;5028;50.974;4.968;2022-09-09T11:54:32;6.73;;;2.03;;
9974;SDS011;5028;50.974;4.968;2022-09-09T11:57:16;5.27;;;1.73;;
9974;SDS011;5028;50.974;4.968;2022-09-09T12:00:02;4.97;;;2.07;;
9974;SDS011;5028;50.974;4.968;2022-09-09T12:02:32;6.13;;;1.90;;
9974;SDS011;5028;50.974;4.968;2022-09-09T12:05:10;3.00;;;1.50;;
9974;SDS011;5028;50.974;4.968;2022-09-09T12:07:47;4.53;;;1.80;;
9974;SDS011;5028;50.974;4.968;2022-09-09T12:10:35;5.93;;;2.03;;
9974;SDS011;5028;50.974;4.968;2022-09-09T12:13:15;5.97;;;1.70;;
9974;SDS011;5028;50.974;4.968;2022-09-09T12:15:56;3.93;;;1.43;;
9974;SDS011;5028;50.974;4.968;2022-09-09T12:18:31;3.13;;;1.50;;
9974;SDS011;5028;50.974;4.968;2022-09-09T12:21:10;4.97;;;1.50;;
9974;SDS011;5028;50.974;4.968;2022-09-09T12:23:46;6.00;;;1.60;;
9974;SDS011;5028;50.974;4.968;2022-09-09T12:26:28;5.23;;;1.70;;
9974;SDS011;5028;50.974;4.968;2022-09-09T12:29:05;2.80;;;1.40;;
9974;SDS011;5028;50.974;4.968;2022-09-09T12:31:50;4.00;;;1.70;;
9974;SDS011;5028;50.974;4.968;2022-09-09T12:34:30;3.70;;;1.47;;
9974;SDS011;5028;50.974;4.968;2022-09-09T12:37:17;4.63;;;1.47;;
9974;SDS011;5028;50.974;4.968;2022-09-09T12:39:52;6.10;;;1.50;;
9974;SDS011;5028;50.974;4.968;2022-09-09T12:42:31;4.57;;;1.40;;
9974;SDS011;5028;50.974;4.968;2022-09-09T12:45:14;4.33;;;1.63;;
9974;SDS011;5028;50.974;4.968;2022-09-09T12:47:52;4.30;;;1.60;;
9974;SDS011;5028;50.974;4.968;2022-09-09T12:50:31;4.33;;;1.67;;
9974;SDS011;5028;50.974;4.968;2022-09-09T12:53:03;4.53;;;1.43;;
9974;SDS011;5028;50.974;4.968;2022-09-09T12:55:48;4.53;;;1.50;;
9974;SDS011;5028;50.974;4.968;2022-09-09T12:58:20;2.40;;;1.43;;
9974;SDS011;5028;50.974;4.968;2022-09-09T13:00:55;5.67;;;1.50;;
9974;SDS011;5028;50.974;4.968;2022-09-09T13:03:25;4.73;;;1.60;;
9974;SDS011;5028;50.974;4.968;2022-09-09T13:06:10;2.97;;;1.40;;
9974;SDS011;5028;50.974;4.968;2022-09-09T13:08:57;3.93;;;1.40;;
9974;SDS011;5028;50.974;4.968;2022-09-09T13:11:35;3.37;;;1.70;;
9974;SDS011;5028;50.974;4.968;2022-09-09T13:14:13;5.30;;;1.53;;
9974;SDS011;5028;50.974;4.968;2022-09-09T13:16:56;3.63;;;1.40;;
9974;SDS011;5028;50.974;4.968;2022-09-09T13:19:26;6.97;;;1.47;;
9974;SDS011;5028;50.974;4.968;2022-09-09T13:22:12;2.57;;;1.37;;
9974;SDS011;5028;50.974;4.968;2022-09-09T13:24:42;3.60;;;1.40;;
9974;SDS011;5028;50.974;4.968;2022-09-09T13:27:23;2.93;;;1.33;;
9974;SDS011;5028;50.974;4.968;2022-09-09T13:29:57;3.37;;;1.43;;
9974;SDS011;5028;50.974;4.968;2022-09-09T13:32:32;3.60;;;1.53;;
9974;SDS011;5028;50.974;4.968;2022-09-09T13:35:01;3.73;;;1.50;;
9974;SDS011;5028;50.974;4.968;2022-09-09T13:37:37;2.87;;;1.40;;
9974;SDS011;5028;50.974;4.968;2022-09-09T13:40:14;3.87;;;1.40;;
9974;SDS011;5028;50.974;4.968;2022-09-09T13:42:54;2.23;;;1.30;;
9974;SDS011;5028;50.974;4.968;2022-09-09T13:45:26;3.23;;;1.40;;
9974;SDS011;5028;50.974;4.968;2022-09-09T13:48:08;5.07;;;1.23;;
9974;SDS011;5028;50.974;4.968;2022-09-09T13:50:38;3.77;;;1.37;;
9974;SDS011;5028;50.974;4.968;2022-09-09T13:53:14;5.20;;;1.27;;
9974;SDS011;5028;50.974;4.968;2022-09-09T13:55:43;3.03;;;1.20;;
9974;SDS011;5028;50.974;4.968;2022-09-09T13:58:18;3.10;;;1.30;;
9974;SDS011;5028;50.974;4.968;2022-09-09T14:00:49;2.40;;;1.10;;
9974;SDS011;5028;50.974;4.968;2022-09-09T14:03:24;4.50;;;1.40;;
9974;SDS011;5028;50.974;4.968;2022-09-09T14:05:53;2.33;;;1.10;;
9974;SDS011;5028;50.974;4.968;2022-09-09T14:08:35;3.03;;;1.20;;
9974;SDS011;5028;50.974;4.968;2022-09-09T14:11:05;2.47;;;1.30;;
9974;SDS011;5028;50.974;4.968;2022-09-09T14:13:40;2.97;;;1.23;;
9974;SDS011;5028;50.974;4.968;2022-09-09T14:16:10;3.73;;;1.20;;
9974;SDS011;5028;50.974;4.968;2022-09-09T14:18:46;2.13;;;1.00;;
9974;SDS011;5028;50.974;4.968;2022-09-09T14:21:15;2.60;;;1.30;;
9974;SDS011;5028;50.974;4.968;2022-09-09T14:23:51;2.43;;;1.07;;
9974;SDS011;5028;50.974;4.968;2022-09-09T14:26:20;2.77;;;1.10;;
9974;SDS011;5028;50.974;4.968;2022-09-09T14:28:56;2.90;;;1.17;;
9974;SDS011;5028;50.974;4.968;2022-09-09T14:31:27;3.43;;;1.10;;
9974;SDS011;5028;50.974;4.968;2022-09-09T14:34:02;3.37;;;1.33;;
9974;SDS011;5028;50.974;4.968;2022-09-09T14:36:32;2.77;;;1.17;;
9974;SDS011;5028;50.974;4.968;2022-09-09T14:39:07;3.50;;;1.10;;
9974;SDS011;5028;50.974;4.968;2022-09-09T14:41:36;3.40;;;1.20;;
9974;SDS011;5028;50.974;4.968;2022-09-09T14:44:11;2.43;;;1.13;;
9974;SDS011;5028;50.974;4.968;2022-09-09T14:46:42;1.43;;;0.90;;
9974;SDS011;5028;50.974;4.968;2022-09-09T14:49:16;3.27;;;1.10;;
9974;SDS011;5028;50.974;4.968;2022-09-09T14:51:45;2.43;;;1.10;;
9974;SDS011;5028;50.974;4.968;2022-09-09T14:54:20;4.30;;;1.23;;
9974;SDS011;5028;50.974;4.968;2022-09-09T14:56:49;2.50;;;1.00;;
9974;SDS011;5028;50.974;4.968;2022-09-09T14:59:24;3.03;;;1.30;;
9974;SDS011;5028;50.974;4.968;2022-09-09T15:01:54;1.97;;;1.00;;
9974;SDS011;5028;50.974;4.968;2022-09-09T15:04:29;2.10;;;1.13;;
9974;SDS011;5028;50.974;4.968;2022-09-09T15:06:58;2.60;;;1.10;;
9974;SDS011;5028;50.974;4.968;2022-09-09T15:09:39;3.40;;;1.30;;
9974;SDS011;5028;50.974;4.968;2022-09-09T15:12:08;2.57;;;1.30;;
9974;SDS011;5028;50.974;4.968;2022-09-09T15:14:43;2.60;;;1.03;;
9974;SDS011;5028;50.974;4.968;2022-09-09T15:17:12;5.07;;;1.20;;
9974;SDS011;5028;50.974;4.968;2022-09-09T15:19:47;3.13;;;1.20;;
9974;SDS011;5028;50.974;4.968;2022-09-09T15:22:16;1.90;;;1.10;;
9974;SDS011;5028;50.974;4.968;2022-09-09T15:24:51;5.33;;;1.10;;
9974;SDS011;5028;50.974;4.968;2022-09-09T15:27:20;2.67;;;1.30;;
9974;SDS011;5028;50.974;4.968;2022-09-09T15:29:56;2.10;;;1.03;;
9974;SDS011;5028;50.974;4.968;2022-09-09T15:32:26;3.53;;;1.20;;
9974;SDS011;5028;50.974;4.968;2022-09-09T15:35:02;2.77;;;1.30;;
9974;SDS011;5028;50.974;4.968;2022-09-09T15:37:30;4.83;;;1.37;;
9974;SDS011;5028;50.974;4.968;2022-09-09T15:40:05;3.20;;;1.30;;
9974;SDS011;5028;50.974;4.968;2022-09-09T15:42:34;4.73;;;1.53;;
9974;SDS011;5028;50.974;4.968;2022-09-09T15:45:10;4.83;;;1.20;;
9974;SDS011;5028;50.974;4.968;2022-09-09T15:47:40;2.83;;;1.00;;
9974;SDS011;5028;50.974;4.968;2022-09-09T15:50:17;3.00;;;1.20;;
9974;SDS011;5028;50.974;4.968;2022-09-09T15:52:45;3.53;;;1.50;;
9974;SDS011;5028;50.974;4.968;2022-09-09T15:55:20;4.73;;;1.40;;
9974;SDS011;5028;50.974;4.968;2022-09-09T15:57:50;2.73;;;1.00;;
9974;SDS011;5028;50.974;4.968;2022-09-09T16:00:26;2.73;;;1.17;;
9974;SDS011;5028;50.974;4.968;2022-09-09T16:02:57;1.83;;;1.17;;
9974;SDS011;5028;50.974;4.968;2022-09-09T16:05:33;2.30;;;1.10;;
9974;SDS011;5028;50.974;4.968;2022-09-09T16:08:08;3.77;;;1.33;;
9974;SDS011;5028;50.974;4.968;2022-09-09T16:10:44;6.43;;;1.87;;
9974;SDS011;5028;50.974;4.968;2022-09-09T16:13:12;2.63;;;1.30;;
9974;SDS011;5028;50.974;4.968;2022-09-09T16:15:53;4.07;;;1.40;;
9974;SDS011;5028;50.974;4.968;2022-09-09T16:18:23;4.10;;;1.30;;
9974;SDS011;5028;50.974;4.968;2022-09-09T16:20:58;4.40;;;1.40;;
9974;SDS011;5028;50.974;4.968;2022-09-09T16:23:26;4.07;;;1.40;;